createdAt,value
2023-04-15T00:03:36.249Z,97509.41
2023-04-15T00:08:40.805Z,97517.40
2023-04-15T00:13:46.078Z,97522.92
2023-04-15T00:18:49.878Z,97531.09
2023-04-15T00:23:54.334Z,97534.65
2023-04-15T00:28:58.732Z,97527.04
2023-04-15T00:34:04.019Z,97514.98
2023-04-15T00:39:07.914Z,97510.45
2023-04-15T00:44:11.943Z,97505.21
2023-04-15T00:49:16.486Z,97496.84
2023-04-15T00:54:20.421Z,97492.57
2023-04-15T00:59:24.645Z,97499.07
2023-04-15T01:04:28.814Z,97511.00
2023-04-15T01:09:33.719Z,97516.55
2023-04-15T01:14:37.547Z,97518.67
2023-04-15T01:19:41.770Z,97521.44
2023-04-15T01:24:52.560Z,97532.27
2023-04-15T01:29:56.278Z,97534.52
2023-04-15T01:35:00.314Z,97535.84
2023-04-15T01:40:05.354Z,97531.12
2023-04-15T01:45:11.102Z,97526.24
2023-04-15T01:50:16.613Z,97523.98
2023-04-15T01:55:23.526Z,97529.91
2023-04-15T02:00:29.535Z,97544.41
2023-04-15T02:05:35.259Z,97554.61
2023-04-15T02:10:44.068Z,97557.15
2023-04-15T02:15:52.847Z,97557.64
2023-04-15T02:20:59.115Z,97557.19
2023-04-15T02:26:04.096Z,97565.32
2023-04-15T02:31:09.916Z,97571.11
2023-04-15T02:36:14.984Z,97578.75
2023-04-15T02:41:26.362Z,97570.35
2023-04-15T02:46:32.482Z,97559.95
2023-04-15T02:51:36.556Z,97557.40
2023-04-15T02:56:41.391Z,97562.29
2023-04-15T03:03:00.835Z,97565.95
2023-04-15T03:08:05.049Z,97567.45
2023-04-15T03:13:09.569Z,97570.17
2023-04-15T03:18:13.477Z,97569.70
2023-04-15T03:23:18.453Z,97574.05
2023-04-15T03:28:23.677Z,97581.48
2023-04-15T03:33:30.369Z,97586.45
2023-04-15T03:38:35.319Z,97579.67
2023-04-15T03:43:39.135Z,97579.80
2023-04-15T03:48:43.059Z,97592.44
2023-04-15T03:53:47.403Z,97600.48
2023-04-15T03:58:51.427Z,97621.87
2023-04-15T04:03:55.498Z,97632.14
2023-04-15T04:08:59.584Z,97641.25
2023-04-15T04:14:04.427Z,97639.11
2023-04-15T04:19:08.557Z,97642.94
2023-04-15T04:24:12.799Z,97645.23
2023-04-15T04:29:17.314Z,97645.86
2023-04-15T04:34:22.176Z,97652.67
2023-04-15T04:39:26.314Z,97649.63
2023-04-15T04:44:30.041Z,97646.93
2023-04-15T04:49:34.158Z,97649.18
2023-04-15T04:54:38.584Z,97650.55
2023-04-15T04:59:43.234Z,97654.09
2023-04-15T05:04:47.861Z,97654.27
2023-04-15T05:09:51.306Z,97660.67
2023-04-15T05:14:54.510Z,97662.58
2023-04-15T05:19:57.792Z,97673.38
2023-04-15T05:25:01.107Z,97684.69
2023-04-15T05:30:04.715Z,97685.09
2023-04-15T05:35:08.860Z,97680.54
2023-04-15T05:40:13.409Z,97678.04
2023-04-15T05:45:17.203Z,97683.17
2023-04-15T05:50:21.511Z,97683.05
2023-04-15T05:55:24.791Z,97688.15
2023-04-15T06:00:28.015Z,97682.39
2023-04-15T06:05:31.278Z,97688.91
2023-04-15T06:10:36.973Z,97697.00
2023-04-15T06:15:41.477Z,97706.70
2023-04-15T06:20:44.795Z,97710.22
2023-04-15T06:25:48.299Z,97712.17
2023-04-15T06:30:51.816Z,97714.45
2023-04-15T06:35:55.173Z,97715.77
2023-04-15T06:40:58.626Z,97718.75
2023-04-15T06:46:02.511Z,97721.19
2023-04-15T06:51:06.335Z,97727.77
2023-04-15T06:56:10.133Z,97732.67
2023-04-15T07:01:14.414Z,97737.08
2023-04-15T07:06:17.790Z,97744.55
2023-04-15T07:11:21.408Z,97744.64
2023-04-15T07:16:24.764Z,97750.71
2023-04-15T07:21:28.484Z,97756.89
2023-04-15T07:26:31.846Z,97752.15
2023-04-15T07:31:35.315Z,97762.09
2023-04-15T07:36:38.581Z,97773.67
2023-04-15T07:41:41.994Z,97769.12
2023-04-15T07:46:46.368Z,97771.31
2023-04-15T07:51:49.637Z,97778.48
2023-04-15T07:56:52.910Z,97776.48
2023-04-15T08:01:57.127Z,97779.33
2023-04-15T08:07:00.927Z,97782.48
2023-04-15T08:12:04.526Z,97780.36
2023-04-15T08:17:07.869Z,97783.55
2023-04-15T08:22:17.708Z,97790.42
2023-04-15T08:27:22.380Z,97795.20
2023-04-15T08:32:27.072Z,97793.48
2023-04-15T08:37:30.502Z,97787.27
2023-04-15T08:42:43.693Z,97789.09
2023-04-15T08:47:53.244Z,97792.35
2023-04-15T08:53:00.045Z,97790.13
2023-04-15T08:58:03.814Z,97792.02
2023-04-15T09:03:09.110Z,97794.63
2023-04-15T09:08:12.937Z,97795.58
2023-04-15T09:13:16.254Z,97798.74
2023-04-15T09:18:30.241Z,97799.00
2023-04-15T09:23:34.316Z,97793.45
2023-04-15T09:28:43.901Z,97793.24
2023-04-15T09:33:57.679Z,97792.29
2023-04-15T09:39:02.019Z,97791.51
2023-04-15T09:44:05.700Z,97790.10
2023-04-15T09:49:12.073Z,97793.77
2023-04-15T09:54:21.962Z,97796.74
2023-04-15T09:59:25.399Z,97790.48
2023-04-15T10:04:29.929Z,97789.10
2023-04-15T10:09:35.100Z,97787.54
2023-04-15T10:14:39.090Z,97790.84
2023-04-15T10:19:43.039Z,97791.70
2023-04-15T10:24:47.565Z,97786.41
2023-04-15T10:29:54.891Z,97789.29
2023-04-15T10:34:58.818Z,97793.69
2023-04-15T10:40:03.768Z,97788.18
2023-04-15T10:45:17.069Z,97793.09
2023-04-15T10:50:20.415Z,97793.13
2023-04-15T10:55:25.927Z,97785.43
2023-04-15T11:00:31.029Z,97785.45
2023-04-15T11:05:41.028Z,97786.18
2023-04-15T11:10:45.300Z,97788.82
2023-04-15T11:15:49.862Z,97791.63
2023-04-15T11:20:57.963Z,97795.66
2023-04-15T11:26:05.697Z,97798.11
2023-04-15T11:31:21.127Z,97801.71
2023-04-15T11:36:36.816Z,97800.73
2023-04-15T11:41:44.009Z,97808.67
2023-04-15T11:46:47.348Z,97810.43
2023-04-15T11:51:51.686Z,97809.64
2023-04-15T11:56:55.056Z,97811.88
2023-04-15T12:01:58.374Z,97813.45
2023-04-15T12:07:07.774Z,97815.59
2023-04-15T12:12:12.737Z,97809.34
2023-04-15T12:17:17.130Z,97812.36
2023-04-15T12:22:22.804Z,97821.17
2023-04-15T12:27:29.787Z,97819.71
2023-04-15T12:32:35.967Z,97821.38
2023-04-15T12:37:39.215Z,97820.45
2023-04-15T12:42:42.587Z,97821.61
2023-04-15T12:47:45.866Z,97823.69
2023-04-15T12:52:49.046Z,97820.93
2023-04-15T12:57:52.631Z,97824.83
2023-04-15T13:02:56.787Z,97828.41
2023-04-15T13:08:00.201Z,97824.42
2023-04-15T13:13:05.221Z,97819.33
2023-04-15T13:18:08.877Z,97819.15
2023-04-15T13:23:12.687Z,97826.01
2023-04-15T13:28:16.192Z,97825.26
2023-04-15T13:33:20.126Z,97824.48
2023-04-15T13:38:25.624Z,97821.39
2023-04-15T13:43:29.656Z,97812.18
2023-04-15T13:48:33.122Z,97808.90
2023-04-15T13:53:39.217Z,97811.91
2023-04-15T13:58:43.178Z,97806.22
2023-04-15T14:03:46.684Z,97810.84
2023-04-15T14:08:50.256Z,97811.27
2023-04-15T14:13:53.644Z,97814.61
2023-04-15T14:18:56.997Z,97814.09
2023-04-15T14:24:00.604Z,97816.16
2023-04-15T14:29:04.329Z,97824.17
2023-04-15T14:34:08.188Z,97831.48
2023-04-15T14:39:11.721Z,97830.86
2023-04-15T14:44:15.628Z,97829.38
2023-04-15T14:49:19.060Z,97824.95
2023-04-15T14:54:22.646Z,97828.27
2023-04-15T14:59:26.299Z,97829.34
2023-04-15T15:04:32.189Z,97840.55
2023-04-15T15:09:36.189Z,97845.28
2023-04-15T15:14:39.460Z,97847.85
2023-04-15T15:19:43.167Z,97848.86
2023-04-15T15:24:46.531Z,97852.52
2023-04-15T15:29:51.275Z,97851.42
2023-04-15T15:34:54.782Z,97842.60
2023-04-15T15:39:58.497Z,97838.02
2023-04-15T15:45:04.572Z,97847.09
2023-04-15T15:50:08.463Z,97863.46
2023-04-15T15:55:13.313Z,97883.64
2023-04-15T16:00:18.192Z,97896.79
2023-04-15T16:05:23.286Z,97906.41
2023-04-15T16:10:27.133Z,97896.23
2023-04-15T16:15:30.475Z,97895.26
2023-04-15T16:20:33.936Z,97903.97
2023-04-15T16:25:37.411Z,97912.77
2023-04-15T16:30:41.823Z,97921.81
2023-04-15T16:35:45.083Z,97923.17
2023-04-15T16:40:48.304Z,97932.80
2023-04-15T16:45:51.854Z,97937.27
2023-04-15T16:50:56.089Z,97945.69
2023-04-15T16:55:59.335Z,97954.79
2023-04-15T17:01:02.671Z,97958.16
2023-04-15T17:06:06.053Z,97965.89
2023-04-15T17:11:10.210Z,97967.86
2023-04-15T17:16:13.651Z,97975.62
2023-04-15T17:21:18.132Z,97983.48
2023-04-15T17:26:22.288Z,97997.17
2023-04-15T17:31:25.799Z,98005.70
2023-04-15T17:36:29.018Z,98010.82
2023-04-15T17:41:32.372Z,98017.42
2023-04-15T17:46:37.778Z,98029.35
2023-04-15T17:51:41.797Z,98036.20
2023-04-15T17:56:46.152Z,98047.90
2023-04-15T18:01:50.118Z,98059.89
2023-04-15T18:06:54.118Z,98063.90
2023-04-15T18:11:58.742Z,98073.98
2023-04-15T18:17:05.447Z,98085.25
2023-04-15T18:22:08.720Z,98089.09
2023-04-15T18:27:12.395Z,98098.49
2023-04-15T18:32:16.635Z,98106.34
2023-04-15T18:37:20.123Z,98108.60
2023-04-15T18:42:24.842Z,98114.66
2023-04-15T18:47:28.295Z,98121.87
2023-04-15T18:52:32.087Z,98124.48
2023-04-15T18:57:36.975Z,98135.52
2023-04-15T19:02:41.040Z,98148.94
2023-04-15T19:07:44.628Z,98144.52
2023-04-15T19:12:48.338Z,98141.75
2023-04-15T19:17:52.776Z,98147.95
2023-04-15T19:22:56.294Z,98161.77
2023-04-15T19:28:00.099Z,98164.60
2023-04-15T19:33:03.658Z,98175.18
2023-04-15T19:38:07.308Z,98182.71
2023-04-15T19:43:10.838Z,98175.58
2023-04-15T19:48:14.386Z,98183.70
2023-04-15T19:53:20.136Z,98194.89
2023-04-15T19:58:23.778Z,98205.22
2023-04-15T20:03:27.542Z,98212.80
2023-04-15T20:08:31.493Z,98215.31
2023-04-15T20:13:34.912Z,98221.90
2023-04-15T20:18:38.409Z,98218.20
2023-04-15T20:23:42.751Z,98219.23
2023-04-15T20:28:45.975Z,98217.69
2023-04-15T20:33:49.400Z,98217.19
2023-04-15T20:38:52.630Z,98225.51
2023-04-15T20:43:55.938Z,98231.09
2023-04-15T20:48:59.181Z,98229.19
2023-04-15T20:54:02.584Z,98239.96
2023-04-15T20:59:06.389Z,98253.26
2023-04-15T21:04:09.987Z,98255.35
2023-04-15T21:09:13.335Z,98259.11
2023-04-15T21:14:17.232Z,98254.16
2023-04-15T21:19:20.732Z,98259.95
2023-04-15T21:24:24.122Z,98266.61
2023-04-15T21:29:27.506Z,98269.83
2023-04-15T21:34:30.789Z,98271.06
2023-04-15T21:39:35.456Z,98277.16
2023-04-15T21:44:39.490Z,98280.83
2023-04-15T21:49:43.763Z,98289.88
2023-04-15T21:54:47.648Z,98293.45
2023-04-15T21:59:53.169Z,98298.37
2023-04-15T22:04:56.960Z,98303.04
2023-04-15T22:10:02.170Z,98302.48
2023-04-15T22:15:08.360Z,98306.98
2023-04-15T22:20:13.744Z,98310.06
2023-04-15T22:25:17.233Z,98314.38
2023-04-15T22:30:23.536Z,98319.61
2023-04-15T22:35:27.449Z,98327.86
2023-04-15T22:40:31.162Z,98324.38
2023-04-15T22:45:37.342Z,98327.04
2023-04-15T22:50:42.179Z,98332.29
2023-04-15T22:55:49.221Z,98336.63
2023-04-15T23:00:52.569Z,98340.49
2023-04-15T23:05:55.999Z,98343.77
2023-04-15T23:11:00.180Z,98353.52
2023-04-15T23:16:04.356Z,98360.66
2023-04-15T23:21:07.820Z,98367.11
2023-04-15T23:26:12.045Z,98368.88
2023-04-15T23:31:15.387Z,98374.64
2023-04-15T23:36:18.985Z,98376.42
2023-04-15T23:41:22.291Z,98375.39
2023-04-15T23:46:25.630Z,98380.43
2023-04-15T23:51:29.588Z,98382.65
2023-04-15T23:56:34.253Z,98382.80
